createdAt,value
2023-01-11T00:00:39.136Z,21.10
2023-01-11T00:03:07.037Z,21.10
2023-01-11T00:05:41.095Z,21.10
2023-01-11T00:08:08.907Z,21.10
2023-01-11T00:10:36.445Z,21.10
2023-01-11T00:13:03.898Z,21.10
2023-01-11T00:15:31.012Z,21.00
2023-01-11T00:17:57.898Z,21.00
2023-01-11T00:20:25.183Z,21.00
2023-01-11T00:22:52.081Z,21.00
2023-01-11T00:25:21.394Z,21.00
2023-01-11T00:27:49.540Z,21.00
2023-01-11T00:30:19.274Z,21.00
2023-01-11T00:32:46.165Z,21.00
2023-01-11T00:35:13.110Z,21.00
2023-01-11T00:37:40.427Z,21.00
2023-01-11T00:40:08.259Z,21.00
2023-01-11T00:42:53.681Z,21.00
2023-01-11T00:45:38.963Z,20.90
2023-01-11T00:48:07.090Z,20.90
2023-01-11T00:50:35.557Z,20.90
2023-01-11T00:53:02.909Z,20.90
2023-01-11T00:55:31.977Z,20.90
2023-01-11T00:57:59.122Z,20.90
2023-01-11T01:00:26.414Z,20.90
2023-01-11T01:02:53.442Z,20.90
2023-01-11T01:05:20.458Z,20.90
2023-01-11T01:07:47.264Z,20.90
2023-01-11T01:10:16.396Z,20.80
2023-01-11T01:13:01.926Z,20.90
2023-01-11T01:15:28.985Z,20.90
2023-01-11T01:17:56.096Z,20.90
2023-01-11T01:20:24.113Z,20.80
2023-01-11T01:22:51.528Z,20.80
2023-01-11T01:25:18.409Z,20.80
2023-01-11T01:27:45.216Z,20.80
2023-01-11T01:30:12.718Z,20.80
2023-01-11T01:32:39.670Z,20.80
2023-01-11T01:35:07.200Z,20.80
2023-01-11T01:37:34.203Z,20.80
2023-01-11T01:40:01.321Z,20.80
2023-01-11T01:42:28.323Z,20.70
2023-01-11T01:45:15.140Z,20.80
2023-01-11T01:47:44.720Z,20.80
2023-01-11T01:50:32.245Z,20.80
2023-01-11T01:53:18.551Z,20.70
2023-01-11T01:55:52.356Z,20.80
2023-01-11T01:58:23.736Z,20.80
2023-01-11T02:00:51.108Z,20.80
2023-01-11T02:03:22.483Z,20.80
2023-01-11T02:05:50.932Z,20.70
2023-01-11T02:08:26.566Z,20.70
2023-01-11T02:10:54.382Z,20.70
2023-01-11T02:13:21.317Z,20.70
2023-01-11T02:16:07.441Z,20.70
2023-01-11T02:18:38.421Z,20.70
2023-01-11T02:21:22.028Z,20.70
2023-01-11T02:23:59.768Z,20.70
2023-01-11T02:26:38.516Z,20.70
2023-01-11T02:29:16.454Z,20.70
2023-01-11T02:32:11.237Z,20.70
2023-01-11T02:34:48.310Z,20.70
2023-01-11T02:37:33.807Z,20.70
2023-01-11T02:40:13.668Z,20.60
2023-01-11T02:43:02.100Z,20.70
2023-01-11T02:45:39.618Z,20.70
2023-01-11T02:48:18.256Z,20.60
2023-01-11T02:50:55.974Z,20.70
2023-01-11T02:53:23.151Z,20.60
2023-01-11T02:55:54.668Z,20.60
2023-01-11T02:58:25.042Z,20.60
2023-01-11T03:00:55.646Z,20.60
2023-01-11T03:03:34.147Z,20.60
2023-01-11T03:06:12.145Z,20.60
2023-01-11T03:08:44.838Z,20.60
2023-01-11T03:11:39.305Z,20.60
2023-01-11T03:14:38.465Z,20.50
2023-01-11T03:17:48.642Z,20.60
2023-01-11T03:20:24.126Z,20.50
2023-01-11T03:23:16.569Z,20.50
2023-01-11T03:25:55.094Z,20.50
2023-01-11T03:28:44.022Z,20.50
2023-01-11T03:31:36.651Z,20.50
2023-01-11T03:34:23.053Z,20.50
2023-01-11T03:37:00.529Z,20.50
2023-01-11T03:39:40.055Z,20.50
2023-01-11T03:42:09.933Z,20.50
2023-01-11T03:44:44.071Z,20.50
2023-01-11T03:47:14.728Z,20.50
2023-01-11T03:50:26.238Z,20.40
2023-01-11T03:52:55.053Z,20.50
2023-01-11T03:55:26.680Z,20.50
2023-01-11T03:57:54.821Z,20.50
2023-01-11T04:00:23.012Z,20.40
2023-01-11T04:02:50.090Z,20.40
2023-01-11T04:05:16.862Z,20.40
2023-01-11T04:07:43.620Z,20.40
2023-01-11T04:10:11.055Z,20.40
2023-01-11T04:12:37.844Z,20.40
2023-01-11T04:15:05.650Z,20.40
2023-01-11T04:17:32.506Z,20.40
2023-01-11T04:19:59.251Z,20.40
2023-01-11T04:22:26.020Z,20.40
2023-01-11T04:24:55.080Z,20.40
2023-01-11T04:27:21.873Z,20.40
2023-01-11T04:29:48.666Z,20.40
2023-01-11T04:32:15.417Z,20.40
2023-01-11T04:34:42.210Z,20.40
2023-01-11T04:37:09.566Z,20.40
2023-01-11T04:39:36.304Z,20.30
2023-01-11T04:42:18.582Z,20.30
2023-01-11T04:44:47.987Z,20.30
2023-01-11T04:47:16.745Z,20.30
2023-01-11T04:49:47.534Z,20.30
2023-01-11T04:52:16.200Z,20.30
2023-01-11T04:54:43.067Z,20.30
2023-01-11T04:57:14.574Z,20.30
2023-01-11T04:59:41.470Z,20.30
2023-01-11T05:02:08.434Z,20.30
2023-01-11T05:04:35.257Z,20.30
2023-01-11T05:07:02.179Z,20.30
2023-01-11T05:09:29.055Z,20.30
2023-01-11T05:11:58.167Z,20.30
2023-01-11T05:14:25.072Z,20.30
2023-01-11T05:16:52.319Z,20.20
2023-01-11T05:19:19.413Z,20.20
2023-01-11T05:21:46.231Z,20.20
2023-01-11T05:24:15.503Z,20.20
2023-01-11T05:26:43.995Z,20.20
2023-01-11T05:29:13.698Z,20.20
2023-01-11T05:31:41.078Z,20.20
2023-01-11T05:34:09.845Z,20.20
2023-01-11T05:36:37.235Z,20.20
2023-01-11T05:39:05.182Z,20.20
2023-01-11T05:41:32.517Z,20.10
2023-01-11T05:44:18.082Z,20.10
2023-01-11T05:46:45.158Z,20.10
2023-01-11T05:49:13.332Z,20.10
2023-01-11T05:51:43.187Z,20.10
2023-01-11T05:54:12.844Z,20.10
2023-01-11T05:56:40.265Z,20.10
2023-01-11T05:59:07.218Z,20.10
2023-01-11T06:01:35.080Z,20.10
2023-01-11T06:04:02.616Z,20.10
2023-01-11T06:06:29.688Z,20.10
2023-01-11T06:08:57.568Z,20.10
2023-01-11T06:11:24.344Z,20.10
2023-01-11T06:13:51.150Z,20.10
2023-01-11T06:16:20.257Z,20.10
2023-01-11T06:18:51.606Z,20.10
2023-01-11T06:21:18.730Z,20.10
2023-01-11T06:23:48.082Z,20.10
2023-01-11T06:26:17.291Z,20.10
2023-01-11T06:28:48.113Z,20.10
2023-01-11T06:31:17.088Z,20.10
2023-01-11T06:33:45.314Z,20.20
2023-01-11T06:36:14.140Z,20.20
2023-01-11T06:38:41.359Z,20.20
2023-01-11T06:41:08.507Z,20.20
2023-01-11T06:43:37.145Z,20.20
2023-01-11T06:46:05.182Z,20.20
2023-01-11T06:48:32.572Z,20.20
2023-01-11T06:51:00.008Z,20.30
2023-01-11T06:53:29.575Z,20.30
2023-01-11T06:55:57.792Z,20.30
2023-01-11T06:58:25.008Z,20.30
2023-01-11T07:00:53.918Z,20.40
2023-01-11T07:03:23.937Z,20.30
2023-01-11T07:05:51.879Z,20.40
2023-01-11T07:08:18.728Z,20.30
2023-01-11T07:10:48.254Z,20.40
2023-01-11T07:13:17.252Z,20.40
2023-01-11T07:15:50.441Z,20.40
2023-01-11T07:18:19.372Z,20.30
2023-01-11T07:20:46.823Z,20.40
2023-01-11T07:23:14.320Z,20.40
2023-01-11T07:25:41.916Z,20.40
2023-01-11T07:28:09.872Z,20.40
2023-01-11T07:30:56.152Z,20.40
2023-01-11T07:33:25.788Z,20.40
2023-01-11T07:35:53.558Z,20.40
2023-01-11T07:38:20.858Z,20.50
2023-01-11T07:40:47.775Z,20.40
2023-01-11T07:43:15.208Z,20.40
2023-01-11T07:45:46.492Z,20.40
2023-01-11T07:48:14.914Z,20.50
2023-01-11T07:50:44.888Z,20.50
2023-01-11T07:53:13.979Z,20.50
2023-01-11T07:55:42.141Z,20.50
2023-01-11T07:58:10.902Z,20.50
2023-01-11T08:00:38.182Z,20.50
2023-01-11T08:03:08.180Z,20.50
2023-01-11T08:05:35.740Z,20.50
2023-01-11T08:08:02.962Z,20.50
2023-01-11T08:10:29.999Z,20.50
2023-01-11T08:13:15.321Z,20.50
2023-01-11T08:15:45.218Z,20.50
2023-01-11T08:18:13.060Z,20.50
2023-01-11T08:20:41.275Z,20.50
2023-01-11T08:23:10.575Z,20.50
2023-01-11T08:25:38.573Z,20.60
2023-01-11T08:28:07.728Z,20.60
2023-01-11T08:30:35.863Z,20.60
2023-01-11T08:33:03.377Z,20.50
2023-01-11T08:35:30.919Z,20.50
2023-01-11T08:37:58.272Z,20.50
2023-01-11T08:40:27.615Z,20.60
2023-01-11T08:42:58.094Z,20.60
2023-01-11T08:45:25.996Z,20.60
2023-01-11T08:47:53.790Z,20.60
2023-01-11T08:50:22.272Z,20.60
2023-01-11T08:52:51.152Z,20.60
2023-01-11T08:55:21.276Z,20.50
2023-01-11T08:57:48.608Z,20.60
2023-01-11T09:00:16.292Z,20.60
2023-01-11T09:02:45.371Z,20.60
2023-01-11T09:05:12.324Z,20.60
2023-01-11T09:07:39.123Z,20.60
2023-01-11T09:10:06.385Z,20.60
2023-01-11T09:12:33.195Z,20.60
2023-01-11T09:15:00.444Z,20.60
2023-01-11T09:17:27.830Z,20.70
2023-01-11T09:19:54.641Z,20.70
2023-01-11T09:22:23.787Z,20.60
2023-01-11T09:24:50.584Z,20.70
2023-01-11T09:27:17.955Z,20.70
2023-01-11T09:29:47.457Z,20.70
2023-01-11T09:32:14.773Z,20.70
2023-01-11T09:34:42.924Z,20.70
2023-01-11T09:37:09.737Z,20.70
2023-01-11T09:39:37.155Z,20.70
2023-01-11T09:42:27.059Z,20.70
2023-01-11T09:45:00.547Z,20.70
2023-01-11T09:47:49.131Z,20.70
2023-01-11T09:50:19.825Z,20.70
2023-01-11T09:52:52.743Z,20.70
2023-01-11T09:55:28.027Z,20.70
2023-01-11T09:58:06.784Z,20.70
2023-01-11T10:00:54.818Z,20.70
2023-01-11T10:03:43.349Z,20.70
2023-01-11T10:06:42.310Z,20.70
2023-01-11T10:18:22.521Z,20.70
2023-01-11T10:19:41.240Z,20.70
2023-01-11T10:22:27.917Z,20.70
2023-01-11T10:25:05.461Z,20.70
2023-01-11T10:27:41.942Z,20.70
2023-01-11T10:30:37.477Z,20.70
2023-01-11T10:33:16.114Z,20.70
2023-01-11T10:36:14.996Z,20.70
2023-01-11T10:38:59.225Z,20.70
2023-01-11T10:41:37.720Z,20.70
2023-01-11T10:44:19.290Z,20.70
2023-01-11T10:46:52.814Z,20.70
2023-01-11T10:49:25.881Z,20.70
2023-01-11T10:51:55.763Z,20.70
2023-01-11T10:54:31.477Z,20.70
2023-01-11T10:57:19.975Z,20.70
2023-01-11T11:00:17.563Z,20.70
2023-01-11T11:03:02.896Z,20.70
2023-01-11T11:05:53.461Z,20.60
2023-01-11T11:08:35.152Z,20.60
2023-01-11T11:11:13.716Z,20.60
2023-01-11T11:14:12.704Z,20.60
2023-01-11T11:17:19.150Z,20.60
2023-01-11T11:19:46.602Z,20.60
2023-01-11T11:22:14.260Z,20.60
2023-01-11T11:24:49.963Z,20.60
2023-01-11T11:27:30.992Z,20.60
2023-01-11T11:29:58.506Z,20.60
2023-01-11T11:32:36.346Z,20.60
2023-01-11T11:35:04.599Z,20.60
2023-01-11T11:37:44.546Z,20.60
2023-01-11T11:40:57.071Z,20.60
2023-01-11T11:43:27.528Z,20.60
2023-01-11T11:45:57.697Z,20.60
2023-01-11T11:48:27.266Z,20.60
2023-01-11T11:50:57.723Z,20.60
2023-01-11T11:53:37.548Z,20.60
2023-01-11T11:56:16.331Z,20.60
2023-01-11T11:58:44.875Z,20.60
2023-01-11T12:01:24.316Z,20.70
2023-01-11T12:03:53.578Z,20.70
2023-01-11T12:06:29.554Z,20.80
2023-01-11T12:08:59.434Z,20.80
2023-01-11T12:11:34.847Z,20.80
2023-01-11T12:14:15.709Z,20.80
2023-01-11T12:16:45.141Z,20.80
2023-01-11T12:25:28.799Z,20.90
2023-01-11T12:28:12.173Z,20.80
2023-01-11T12:30:45.764Z,20.80
2023-01-11T12:33:31.502Z,20.80
2023-01-11T12:36:13.368Z,20.80
2023-01-11T12:39:00.995Z,20.80
2023-01-11T12:41:59.119Z,20.80
2023-01-11T12:44:41.369Z,20.80
2023-01-11T12:47:26.700Z,20.80
2023-01-11T12:50:05.863Z,20.80
2023-01-11T12:52:39.312Z,20.80
2023-01-11T12:55:33.932Z,20.90
2023-01-11T12:58:20.307Z,20.80
2023-01-11T13:01:06.744Z,20.80
2023-01-11T13:04:20.258Z,20.80
2023-01-11T13:07:09.320Z,20.80
2023-01-11T13:10:38.975Z,20.80
2023-01-11T13:13:12.240Z,20.70
2023-01-11T13:15:46.434Z,20.80
2023-01-11T13:18:28.684Z,20.80
2023-01-11T13:21:17.235Z,20.80
2023-01-11T13:23:50.033Z,20.80
2023-01-11T13:26:36.893Z,20.70
2023-01-11T13:29:11.761Z,20.80
2023-01-11T13:31:41.332Z,20.70
2023-01-11T13:34:16.755Z,20.70
2023-01-11T13:36:49.207Z,20.70
2023-01-11T13:39:32.918Z,20.70
2023-01-11T13:42:05.548Z,20.70
2023-01-11T13:44:42.630Z,20.70
2023-01-11T13:47:19.212Z,20.70
2023-01-11T13:50:23.430Z,20.70
2023-01-11T13:53:03.362Z,20.60
2023-01-11T13:55:39.459Z,20.70
2023-01-11T13:58:09.273Z,20.60
2023-01-11T14:00:47.685Z,20.70
2023-01-11T14:03:19.821Z,20.70
2023-01-11T14:06:07.307Z,20.70
2023-01-11T14:08:43.238Z,20.70
2023-01-11T14:11:33.698Z,20.70
2023-01-11T14:14:34.482Z,20.70
2023-01-11T14:17:27.817Z,20.70
2023-01-11T14:20:06.927Z,20.70
2023-01-11T14:22:53.716Z,20.70
2023-01-11T14:25:37.519Z,20.70
2023-01-11T14:28:29.769Z,20.60
2023-01-11T14:31:25.584Z,20.70
2023-01-11T14:33:55.882Z,20.70
2023-01-11T14:36:51.617Z,20.70
2023-01-11T14:39:39.183Z,20.70
2023-01-11T14:42:36.465Z,20.70
2023-01-11T14:45:16.765Z,20.70
2023-01-11T14:47:58.950Z,20.70
2023-01-11T14:50:40.934Z,20.70
2023-01-11T14:53:16.035Z,20.70
2023-01-11T14:55:45.195Z,20.70
2023-01-11T14:58:32.497Z,20.70
2023-01-11T15:00:59.514Z,20.70
2023-01-11T15:03:47.908Z,20.70
2023-01-11T15:06:20.306Z,20.70
2023-01-11T15:09:56.845Z,20.70
2023-01-11T15:12:31.835Z,20.80
2023-01-11T15:15:18.638Z,20.80
2023-01-11T15:18:11.524Z,20.80
2023-01-11T15:20:55.376Z,20.80
2023-01-11T15:23:23.184Z,20.80
2023-01-11T15:26:04.323Z,20.80
2023-01-11T15:28:54.855Z,20.80
2023-01-11T15:31:54.054Z,20.80
2023-01-11T15:34:40.896Z,20.80
2023-01-11T15:37:33.266Z,20.80
2023-01-11T15:40:13.716Z,20.80
2023-01-11T15:42:58.559Z,20.80
2023-01-11T15:46:03.356Z,20.70
2023-01-11T15:48:41.699Z,20.80
2023-01-11T15:51:33.350Z,20.80
2023-01-11T15:54:31.166Z,20.80
2023-01-11T15:57:19.281Z,20.80
2023-01-11T15:59:46.002Z,20.80
2023-01-11T16:02:18.382Z,20.80
2023-01-11T16:05:13.118Z,20.80
2023-01-11T16:07:46.222Z,20.80
2023-01-11T16:10:51.031Z,20.90
2023-01-11T16:13:31.430Z,20.90
2023-01-11T16:16:25.077Z,20.90
2023-01-11T16:19:20.572Z,20.90
2023-01-11T16:21:59.292Z,20.90
2023-01-11T16:24:29.468Z,20.90
2023-01-11T16:27:00.110Z,20.90
2023-01-11T16:29:31.597Z,20.90
2023-01-11T16:32:07.130Z,20.90
2023-01-11T16:34:46.094Z,20.90
2023-01-11T16:37:31.366Z,20.90
2023-01-11T16:40:05.864Z,20.90
2023-01-11T16:42:39.277Z,20.90
2023-01-11T16:45:08.626Z,20.90
2023-01-11T16:47:35.377Z,21.00
2023-01-11T16:50:32.234Z,20.90
2023-01-11T16:53:16.229Z,20.90
2023-01-11T16:55:54.250Z,21.00
2023-01-11T16:58:30.159Z,20.90
2023-01-11T17:01:19.607Z,20.90
2023-01-11T17:03:55.451Z,20.90
2023-01-11T17:06:23.768Z,20.90
2023-01-11T17:08:56.412Z,20.90
2023-01-11T17:11:37.494Z,21.00
2023-01-11T17:14:26.164Z,20.90
2023-01-11T17:16:59.659Z,20.90
2023-01-11T17:19:36.120Z,20.90
2023-01-11T17:22:15.449Z,20.90
2023-01-11T17:24:48.384Z,20.90
2023-01-11T17:27:38.050Z,20.90
2023-01-11T17:30:06.960Z,20.90
2023-01-11T17:32:41.610Z,20.90
2023-01-11T17:35:16.343Z,20.90
2023-01-11T17:37:49.510Z,20.90
2023-01-11T17:40:39.538Z,20.90
2023-01-11T17:43:41.081Z,20.90
2023-01-11T17:46:13.885Z,20.90
2023-01-11T17:48:53.070Z,21.00
2023-01-11T17:51:28.351Z,21.00
2023-01-11T17:53:55.894Z,21.00
2023-01-11T17:56:37.584Z,21.00
2023-01-11T17:59:19.934Z,21.00
2023-01-11T18:01:55.369Z,21.10
2023-01-11T18:04:24.365Z,21.10
2023-01-11T18:06:55.020Z,21.10
2023-01-11T18:09:31.466Z,21.10
2023-01-11T18:12:23.353Z,21.10
2023-01-11T18:14:56.861Z,21.10
2023-01-11T18:17:35.155Z,21.10
2023-01-11T18:20:25.416Z,21.10
2023-01-11T18:22:59.905Z,21.10
2023-01-11T18:25:29.784Z,21.10
2023-01-11T18:28:12.026Z,21.10
2023-01-11T18:30:41.459Z,21.10
2023-01-11T18:33:19.528Z,21.20
2023-01-11T18:35:50.257Z,21.20
2023-01-11T18:38:25.036Z,21.20
2023-01-11T18:40:54.970Z,21.20
2023-01-11T18:43:25.525Z,21.20
2023-01-11T18:45:52.639Z,21.20
2023-01-11T18:48:19.953Z,21.20
2023-01-11T18:50:49.190Z,21.20
2023-01-11T18:53:17.019Z,21.20
2023-01-11T18:55:45.830Z,21.20
2023-01-11T18:58:12.806Z,21.20
2023-01-11T19:00:41.358Z,21.20
2023-01-11T19:03:11.993Z,21.20
2023-01-11T19:05:40.031Z,21.20
2023-01-11T19:08:08.395Z,21.20
2023-01-11T19:10:35.269Z,21.30
2023-01-11T19:13:02.533Z,21.30
2023-01-11T19:15:29.907Z,21.20
2023-01-11T19:17:57.363Z,21.30
2023-01-11T19:20:24.153Z,21.30
2023-01-11T19:22:51.441Z,21.30
2023-01-11T19:25:18.271Z,21.30
2023-01-11T19:27:45.072Z,21.30
2023-01-11T19:30:13.657Z,21.30
2023-01-11T19:32:40.953Z,21.30
2023-01-11T19:35:08.467Z,21.30
2023-01-11T19:37:38.095Z,21.30
2023-01-11T19:40:05.778Z,21.30
2023-01-11T19:42:32.631Z,21.30
2023-01-11T19:44:59.906Z,21.30
2023-01-11T19:47:29.177Z,21.30
2023-01-11T19:49:58.937Z,21.30
2023-01-11T19:52:25.877Z,21.30
2023-01-11T19:54:55.086Z,21.30
2023-01-11T19:57:22.500Z,21.40
2023-01-11T19:59:50.270Z,21.30
2023-01-11T20:02:20.755Z,21.30
2023-01-11T20:04:47.962Z,21.30
2023-01-11T20:07:16.636Z,21.30
2023-01-11T20:09:43.418Z,21.30
2023-01-11T20:12:12.011Z,21.30
2023-01-11T20:14:40.456Z,21.30
2023-01-11T20:17:07.898Z,21.30
2023-01-11T20:19:36.916Z,21.30
2023-01-11T20:22:04.099Z,21.30
2023-01-11T20:24:30.925Z,21.30
2023-01-11T20:26:59.843Z,21.30
2023-01-11T20:29:26.750Z,21.30
2023-01-11T20:31:53.585Z,21.30
2023-01-11T20:34:20.820Z,21.30
2023-01-11T20:36:50.599Z,21.30
2023-01-11T20:39:17.616Z,21.30
2023-01-11T20:41:48.007Z,21.30
2023-01-11T20:44:23.944Z,21.30
2023-01-11T20:46:52.423Z,21.30
2023-01-11T20:49:24.173Z,21.30
2023-01-11T20:51:51.184Z,21.30
2023-01-11T20:54:18.791Z,21.30
2023-01-11T20:56:49.327Z,21.30
2023-01-11T20:59:19.620Z,21.30
2023-01-11T21:01:50.369Z,21.30
2023-01-11T21:04:18.713Z,21.30
2023-01-11T21:06:50.983Z,21.30
2023-01-11T21:09:18.517Z,21.30
2023-01-11T21:11:52.515Z,21.30
2023-01-11T21:14:21.020Z,21.20
2023-01-11T21:16:48.845Z,21.20
2023-01-11T21:19:16.436Z,21.20
2023-01-11T21:21:43.925Z,21.20
2023-01-11T21:24:13.968Z,21.20
2023-01-11T21:26:42.677Z,21.20
2023-01-11T21:29:11.520Z,21.20
2023-01-11T21:31:39.393Z,21.20
2023-01-11T21:34:06.709Z,21.20
2023-01-11T21:36:34.288Z,21.20
2023-01-11T21:39:02.655Z,21.10
2023-01-11T21:41:50.744Z,21.20
2023-01-11T21:44:19.353Z,21.10
2023-01-11T21:46:46.679Z,21.10
2023-01-11T21:49:14.629Z,21.20
2023-01-11T21:51:41.972Z,21.10
2023-01-11T21:54:15.240Z,21.20
2023-01-11T21:56:43.110Z,21.20
2023-01-11T21:59:10.462Z,21.20
2023-01-11T22:01:38.776Z,21.20
2023-01-11T22:04:11.577Z,21.20
2023-01-11T22:06:40.069Z,21.20
2023-01-11T22:09:10.161Z,21.20
2023-01-11T22:11:37.714Z,21.20
2023-01-11T22:14:06.611Z,21.20
2023-01-11T22:16:34.618Z,21.20
2023-01-11T22:19:02.698Z,21.30
2023-01-11T22:21:29.640Z,21.30
2023-01-11T22:23:59.103Z,21.30
2023-01-11T22:26:33.537Z,21.30
2023-01-11T22:29:12.299Z,21.30
2023-01-11T22:32:01.101Z,21.30
2023-01-11T22:34:28.301Z,21.30
2023-01-11T22:36:55.924Z,21.30
2023-01-11T22:39:24.878Z,21.30
2023-01-11T22:41:52.311Z,21.40
2023-01-11T22:44:19.980Z,21.30
2023-01-11T22:46:49.702Z,21.30
2023-01-11T22:49:17.535Z,21.30
2023-01-11T22:51:44.661Z,21.30
2023-01-11T22:54:11.691Z,21.30
2023-01-11T22:56:39.167Z,21.30
2023-01-11T22:59:06.027Z,21.40
2023-01-11T23:01:37.066Z,21.40
2023-01-11T23:04:04.968Z,21.30
2023-01-11T23:06:37.493Z,21.30
2023-01-11T23:09:06.107Z,21.40
2023-01-11T23:11:55.596Z,21.40
2023-01-11T23:14:22.644Z,21.40
2023-01-11T23:16:50.431Z,21.40
2023-01-11T23:19:19.513Z,21.40
2023-01-11T23:21:47.657Z,21.40
2023-01-11T23:24:15.931Z,21.40
2023-01-11T23:26:43.395Z,21.50
2023-01-11T23:29:10.154Z,21.50
2023-01-11T23:31:37.449Z,21.40
2023-01-11T23:34:06.870Z,21.50
2023-01-11T23:36:34.941Z,21.50
2023-01-11T23:39:02.067Z,21.50
2023-01-11T23:41:47.669Z,21.40
2023-01-11T23:44:15.561Z,21.50
2023-01-11T23:47:01.591Z,21.50
2023-01-11T23:49:29.313Z,21.50
2023-01-11T23:51:56.333Z,21.50
2023-01-11T23:54:25.849Z,21.40
2023-01-11T23:56:53.134Z,21.50
2023-01-11T23:59:20.285Z,21.40
